KSNA/SNA METAR and TAF weather

Enter ICAO airport designator
Station Type Date Time Source
KSNA METAR 2022/01/18 06:53 UTC NOAA

KSNA 180653Z 00000KT 10SM FEW050 BKN070 17/12 A3006 RMK AO2 SLP180 LAST T01670122


Station Type Date Time Source
KSNA Decoded METAR 2022/01/18 06:53 UTC NOAA

SANTA ANA WAYNE ORANGE CTY, CA, United States (KSNA) 33-41N 117-52W 15M
Jan 18, 2022 - 01:53 AM EST / 2022.01.18 0653 UTC
Wind: Calm:0
Visibility: 10 mile(s):0
Sky conditions: mostly cloudy
Temperature: 62.1 F (16.7 C)
Dew Point: 54.0 F (12.2 C)
Relative Humidity: 74%
Pressure (altimeter): 30.06 in. Hg (1017 hPa)
ob: KSNA 180653Z 00000KT 10SM FEW050 BKN070 17/12 A3006 RMK AO2 SLP180 LAST T01670122
cycle: 7

Station Type Date Time Source
KSNA TAF 2022/01/18 06:45 UTC NOAA

TAF KSNA 180542Z 1806/1906 VRB03KT P6SM VCSH BKN045 BKN070
TEMPO 1812/1815 4SM -SHRA BKN025
FM181700 VRB04KT P6SM BKN030
FM182100 22007KT P6SM SCT040
FM190200 VRB03KT P6SM BKN030

Example: see airport list